Pagrindinis puslapis
METAR-TAF:

METAR-TAF

Oro uostai :

Pskovas, Rusija

platuma: 57-47-06N, ilguma: 028-23-54E, Aukštis: 47 m

Dabartinis oras

Ataskaita buvo paskelbta 46 minutes, ne 10:00 UTC
Vėjas 6 kt iš Rytų/Šiaurės Rytų, svyruoja nuo Šiaurės ir Rytų
Temperatūra 10°C
Drėgmė 76%
Slėgis 1008 hPa
Matomumas 10 km arba daugiau
Išsisklaidę debesys ne aukštis 1400 ft

METAR: ULOO 021000Z 06003MPS 010V100 9999 SCT014 10/06 Q1008 R01/090060 NOSIG RMK QFE751

Laikas: 13:46 (10:46 UTC)

Prognozė

Ataskaita buvo paskelbta 2 valandos ir 52 minutes, ne 07:54 UTC
Prognozė galioja nuo 02 metu 09 UTC su 02 metu 18 UTC
Vėjas 6 kt iš Rytų/Šiaurės Rytų
Matomumas 10 km arba daugiau
Su prošvaistėmis ne aukštis 1600 ft
Laikinai
nuo 02 metu 09 UTC su 02 metu 12 UTC
Su prošvaistėmis ne aukštis 1000 ft

TAF: ULOO 020754Z 0209/0218 06003MPS 9999 BKN016 TEMPO 0209/0212 BKN010

Orai ataskaitas ir orų prognozės (METAR, TAF).

turimą stotys yra geltonos ir raudonos taškus žemėlapyje.

Perkelti pele per norėdami pamatyti stoties vardą.

Tada spustelėkite, norėdami matyti oro stebėjimo ir prognozės.

Norėdami pakeisti žemėlapį: spustelėkite ant žalios mygtukų su juodo kryžiaus žemyn,; žalią mygtuką su brūkšneliu, jei norite nutolinti; arba žalių rodyklių gretimoms žemėlapius.


METAR-TAF: